sensor_id;sensor_type;location;lat;lon;timestamp;P1;durP1;ratioP1;P2;durP2;ratioP2
14377;SDS011;7272;53.668;9.578;2022-10-04T00:00:39;2.03;;;1.73;;
14377;SDS011;7272;53.668;9.578;2022-10-04T00:03:43;4.27;;;2.30;;
14377;SDS011;7272;53.668;9.578;2022-10-04T00:06:52;2.70;;;1.70;;
14377;SDS011;7272;53.668;9.578;2022-10-04T00:09:59;2.67;;;2.00;;
14377;SDS011;7272;53.668;9.578;2022-10-04T00:13:05;3.83;;;2.37;;
14377;SDS011;7272;53.668;9.578;2022-10-04T00:16:20;4.67;;;2.60;;
14377;SDS011;7272;53.668;9.578;2022-10-04T00:19:42;3.53;;;2.40;;
14377;SDS011;7272;53.668;9.578;2022-10-04T00:23:23;6.37;;;3.20;;
14377;SDS011;7272;53.668;9.578;2022-10-04T00:30:15;5.37;;;2.67;;
14377;SDS011;7272;53.668;9.578;2022-10-04T00:33:33;3.93;;;3.00;;
14377;SDS011;7272;53.668;9.578;2022-10-04T00:36:37;3.50;;;2.23;;
14377;SDS011;7272;53.668;9.578;2022-10-04T00:39:59;2.73;;;2.10;;
14377;SDS011;7272;53.668;9.578;2022-10-04T00:43:06;3.00;;;2.00;;
14377;SDS011;7272;53.668;9.578;2022-10-04T00:46:14;3.93;;;2.43;;
14377;SDS011;7272;53.668;9.578;2022-10-04T00:49:22;4.43;;;2.10;;
14377;SDS011;7272;53.668;9.578;2022-10-04T00:52:30;4.47;;;3.20;;
14377;SDS011;7272;53.668;9.578;2022-10-04T00:55:37;6.70;;;4.37;;
14377;SDS011;7272;53.668;9.578;2022-10-04T00:58:46;6.43;;;4.60;;
14377;SDS011;7272;53.668;9.578;2022-10-04T01:02:04;6.37;;;4.60;;
14377;SDS011;7272;53.668;9.578;2022-10-04T01:05:15;6.67;;;4.70;;
14377;SDS011;7272;53.668;9.578;2022-10-04T01:08:21;8.20;;;6.40;;
14377;SDS011;7272;53.668;9.578;2022-10-04T01:11:29;5.97;;;4.80;;
14377;SDS011;7272;53.668;9.578;2022-10-04T01:14:39;6.70;;;4.67;;
14377;SDS011;7272;53.668;9.578;2022-10-04T01:18:11;8.83;;;5.03;;
14377;SDS011;7272;53.668;9.578;2022-10-04T01:21:22;3.73;;;3.33;;
14377;SDS011;7272;53.668;9.578;2022-10-04T01:24:34;6.03;;;3.97;;
14377;SDS011;7272;53.668;9.578;2022-10-04T01:27:39;5.50;;;3.60;;
14377;SDS011;7272;53.668;9.578;2022-10-04T01:30:42;7.77;;;4.73;;
14377;SDS011;7272;53.668;9.578;2022-10-04T01:33:44;6.93;;;4.47;;
14377;SDS011;7272;53.668;9.578;2022-10-04T01:36:47;4.77;;;3.90;;
14377;SDS011;7272;53.668;9.578;2022-10-04T01:39:53;3.87;;;3.43;;
14377;SDS011;7272;53.668;9.578;2022-10-04T01:42:55;6.65;;;4.63;;
14377;SDS011;7272;53.668;9.578;2022-10-04T01:46:03;4.60;;;3.27;;
14377;SDS011;7272;53.668;9.578;2022-10-04T01:49:08;3.43;;;3.07;;
14377;SDS011;7272;53.668;9.578;2022-10-04T01:52:14;5.80;;;3.70;;
14377;SDS011;7272;53.668;9.578;2022-10-04T01:55:23;4.20;;;2.77;;
14377;SDS011;7272;53.668;9.578;2022-10-04T01:58:31;4.03;;;2.50;;
14377;SDS011;7272;53.668;9.578;2022-10-04T02:01:37;3.93;;;2.83;;
14377;SDS011;7272;53.668;9.578;2022-10-04T02:04:43;5.10;;;3.00;;
14377;SDS011;7272;53.668;9.578;2022-10-04T02:07:51;6.10;;;3.70;;
14377;SDS011;7272;53.668;9.578;2022-10-04T02:10:58;5.00;;;3.63;;
14377;SDS011;7272;53.668;9.578;2022-10-04T02:14:01;3.80;;;3.40;;
14377;SDS011;7272;53.668;9.578;2022-10-04T02:17:05;4.87;;;3.20;;
14377;SDS011;7272;53.668;9.578;2022-10-04T02:20:11;4.97;;;3.13;;
14377;SDS011;7272;53.668;9.578;2022-10-04T02:23:17;5.00;;;2.57;;
14377;SDS011;7272;53.668;9.578;2022-10-04T02:26:21;5.77;;;3.30;;
14377;SDS011;7272;53.668;9.578;2022-10-04T02:29:24;3.30;;;2.90;;
14377;SDS011;7272;53.668;9.578;2022-10-04T02:32:28;2.23;;;2.03;;
14377;SDS011;7272;53.668;9.578;2022-10-04T02:35:48;3.40;;;2.47;;
14377;SDS011;7272;53.668;9.578;2022-10-04T02:38:52;2.93;;;2.37;;
14377;SDS011;7272;53.668;9.578;2022-10-04T02:41:59;3.73;;;2.70;;
14377;SDS011;7272;53.668;9.578;2022-10-04T02:45:04;2.63;;;2.27;;
14377;SDS011;7272;53.668;9.578;2022-10-04T02:48:24;3.10;;;2.40;;
14377;SDS011;7272;53.668;9.578;2022-10-04T02:51:37;3.13;;;2.20;;
14377;SDS011;7272;53.668;9.578;2022-10-04T02:54:43;3.27;;;2.40;;
14377;SDS011;7272;53.668;9.578;2022-10-04T02:57:50;3.23;;;2.30;;
14377;SDS011;7272;53.668;9.578;2022-10-04T03:00:54;3.88;;;2.85;;
14377;SDS011;7272;53.668;9.578;2022-10-04T03:03:57;3.20;;;2.27;;
14377;SDS011;7272;53.668;9.578;2022-10-04T03:07:00;7.63;;;2.70;;
14377;SDS011;7272;53.668;9.578;2022-10-04T03:10:05;3.80;;;2.50;;
14377;SDS011;7272;53.668;9.578;2022-10-04T03:13:11;3.43;;;2.00;;
14377;SDS011;7272;53.668;9.578;2022-10-04T03:16:15;3.43;;;2.03;;
14377;SDS011;7272;53.668;9.578;2022-10-04T03:19:18;3.40;;;2.30;;
14377;SDS011;7272;53.668;9.578;2022-10-04T03:22:23;2.33;;;2.13;;
14377;SDS011;7272;53.668;9.578;2022-10-04T03:25:27;3.10;;;2.10;;
14377;SDS011;7272;53.668;9.578;2022-10-04T03:28:32;4.20;;;2.40;;
14377;SDS011;7272;53.668;9.578;2022-10-04T03:31:38;4.17;;;2.33;;
14377;SDS011;7272;53.668;9.578;2022-10-04T03:34:50;4.23;;;2.70;;
14377;SDS011;7272;53.668;9.578;2022-10-04T03:37:55;3.37;;;2.23;;
14377;SDS011;7272;53.668;9.578;2022-10-04T03:41:00;3.53;;;2.70;;
14377;SDS011;7272;53.668;9.578;2022-10-04T03:44:05;5.53;;;2.50;;
14377;SDS011;7272;53.668;9.578;2022-10-04T03:47:14;3.77;;;2.37;;
14377;SDS011;7272;53.668;9.578;2022-10-04T03:50:20;4.10;;;2.37;;
14377;SDS011;7272;53.668;9.578;2022-10-04T03:53:30;5.20;;;2.53;;
14377;SDS011;7272;53.668;9.578;2022-10-04T03:56:36;5.07;;;2.73;;
14377;SDS011;7272;53.668;9.578;2022-10-04T03:59:40;3.37;;;2.50;;
14377;SDS011;7272;53.668;9.578;2022-10-04T04:02:43;4.97;;;2.43;;
14377;SDS011;7272;53.668;9.578;2022-10-04T04:05:49;4.07;;;2.33;;
14377;SDS011;7272;53.668;9.578;2022-10-04T04:08:54;2.97;;;2.17;;
14377;SDS011;7272;53.668;9.578;2022-10-04T04:11:58;4.60;;;2.27;;
14377;SDS011;7272;53.668;9.578;2022-10-04T04:15:04;4.27;;;2.40;;
14377;SDS011;7272;53.668;9.578;2022-10-04T04:18:10;2.33;;;2.13;;
14377;SDS011;7272;53.668;9.578;2022-10-04T04:21:17;3.27;;;2.37;;
14377;SDS011;7272;53.668;9.578;2022-10-04T04:24:23;4.53;;;2.80;;
14377;SDS011;7272;53.668;9.578;2022-10-04T04:27:32;5.03;;;2.47;;
14377;SDS011;7272;53.668;9.578;2022-10-04T04:30:38;3.47;;;2.20;;
14377;SDS011;7272;53.668;9.578;2022-10-04T04:33:46;3.53;;;2.40;;
14377;SDS011;7272;53.668;9.578;2022-10-04T04:36:56;3.33;;;2.30;;
14377;SDS011;7272;53.668;9.578;2022-10-04T04:40:10;3.47;;;2.70;;
14377;SDS011;7272;53.668;9.578;2022-10-04T04:43:20;4.07;;;2.73;;
14377;SDS011;7272;53.668;9.578;2022-10-04T04:46:27;4.03;;;2.80;;
14377;SDS011;7272;53.668;9.578;2022-10-04T04:49:29;4.73;;;2.80;;
14377;SDS011;7272;53.668;9.578;2022-10-04T04:52:31;4.00;;;2.60;;
14377;SDS011;7272;53.668;9.578;2022-10-04T04:55:36;3.67;;;2.67;;
14377;SDS011;7272;53.668;9.578;2022-10-04T04:58:42;3.50;;;3.00;;
14377;SDS011;7272;53.668;9.578;2022-10-04T05:01:48;5.40;;;3.00;;
14377;SDS011;7272;53.668;9.578;2022-10-04T05:08:12;5.73;;;3.87;;
14377;SDS011;7272;53.668;9.578;2022-10-04T05:11:16;4.33;;;3.57;;
14377;SDS011;7272;53.668;9.578;2022-10-04T05:14:22;3.97;;;3.53;;
14377;SDS011;7272;53.668;9.578;2022-10-04T05:17:26;6.63;;;4.43;;
14377;SDS011;7272;53.668;9.578;2022-10-04T05:20:34;4.87;;;3.90;;
14377;SDS011;7272;53.668;9.578;2022-10-04T05:23:37;5.97;;;4.32;;
14377;SDS011;7272;53.668;9.578;2022-10-04T05:26:39;6.60;;;4.27;;
14377;SDS011;7272;53.668;9.578;2022-10-04T05:29:46;4.27;;;3.80;;
14377;SDS011;7272;53.668;9.578;2022-10-04T05:33:00;4.90;;;3.43;;
14377;SDS011;7272;53.668;9.578;2022-10-04T05:39:48;5.70;;;3.70;;
14377;SDS011;7272;53.668;9.578;2022-10-04T05:42:59;4.17;;;3.40;;
14377;SDS011;7272;53.668;9.578;2022-10-04T05:46:11;5.87;;;3.90;;
14377;SDS011;7272;53.668;9.578;2022-10-04T05:49:18;4.20;;;3.47;;
14377;SDS011;7272;53.668;9.578;2022-10-04T05:52:26;4.90;;;3.33;;
14377;SDS011;7272;53.668;9.578;2022-10-04T05:55:31;5.07;;;3.83;;
14377;SDS011;7272;53.668;9.578;2022-10-04T05:58:47;6.13;;;3.63;;
14377;SDS011;7272;53.668;9.578;2022-10-04T06:02:02;4.63;;;3.30;;
14377;SDS011;7272;53.668;9.578;2022-10-04T06:05:16;4.20;;;3.80;;
14377;SDS011;7272;53.668;9.578;2022-10-04T06:08:38;3.27;;;3.03;;
14377;SDS011;7272;53.668;9.578;2022-10-04T06:11:52;3.30;;;3.00;;
14377;SDS011;7272;53.668;9.578;2022-10-04T06:15:08;4.23;;;3.53;;
14377;SDS011;7272;53.668;9.578;2022-10-04T06:18:39;3.63;;;3.30;;
14377;SDS011;7272;53.668;9.578;2022-10-04T06:22:02;5.13;;;3.60;;
14377;SDS011;7272;53.668;9.578;2022-10-04T06:25:16;3.40;;;3.10;;
14377;SDS011;7272;53.668;9.578;2022-10-04T06:28:25;3.60;;;2.90;;
14377;SDS011;7272;53.668;9.578;2022-10-04T06:31:47;3.03;;;2.83;;
14377;SDS011;7272;53.668;9.578;2022-10-04T06:35:29;3.97;;;3.30;;
14377;SDS011;7272;53.668;9.578;2022-10-04T06:46:06;7.10;;;6.35;;
14377;SDS011;7272;53.668;9.578;2022-10-04T06:49:21;6.53;;;5.37;;
14377;SDS011;7272;53.668;9.578;2022-10-04T06:52:38;7.53;;;5.47;;
14377;SDS011;7272;53.668;9.578;2022-10-04T06:59:32;7.10;;;6.07;;
14377;SDS011;7272;53.668;9.578;2022-10-04T07:02:48;7.60;;;6.60;;
14377;SDS011;7272;53.668;9.578;2022-10-04T07:05:54;8.37;;;5.73;;
14377;SDS011;7272;53.668;9.578;2022-10-04T07:09:00;7.17;;;6.47;;
14377;SDS011;7272;53.668;9.578;2022-10-04T07:12:05;6.93;;;6.20;;
14377;SDS011;7272;53.668;9.578;2022-10-04T07:15:14;9.93;;;6.80;;
14377;SDS011;7272;53.668;9.578;2022-10-04T07:18:21;9.47;;;7.73;;
14377;SDS011;7272;53.668;9.578;2022-10-04T07:21:32;10.20;;;6.87;;
14377;SDS011;7272;53.668;9.578;2022-10-04T07:24:44;7.17;;;6.47;;
14377;SDS011;7272;53.668;9.578;2022-10-04T07:27:56;8.37;;;6.90;;
14377;SDS011;7272;53.668;9.578;2022-10-04T07:31:36;7.00;;;6.30;;
14377;SDS011;7272;53.668;9.578;2022-10-04T07:34:42;7.70;;;6.87;;
14377;SDS011;7272;53.668;9.578;2022-10-04T07:37:52;8.90;;;6.83;;
14377;SDS011;7272;53.668;9.578;2022-10-04T07:41:03;8.60;;;6.73;;
14377;SDS011;7272;53.668;9.578;2022-10-04T07:44:12;7.00;;;6.30;;
14377;SDS011;7272;53.668;9.578;2022-10-04T07:47:22;9.30;;;7.57;;
14377;SDS011;7272;53.668;9.578;2022-10-04T07:50:27;9.73;;;7.20;;
14377;SDS011;7272;53.668;9.578;2022-10-04T07:53:37;8.27;;;6.50;;
14377;SDS011;7272;53.668;9.578;2022-10-04T07:56:44;9.70;;;6.87;;
14377;SDS011;7272;53.668;9.578;2022-10-04T07:59:52;8.40;;;7.10;;
14377;SDS011;7272;53.668;9.578;2022-10-04T08:03:09;9.90;;;8.93;;
14377;SDS011;7272;53.668;9.578;2022-10-04T08:06:24;8.27;;;7.00;;
14377;SDS011;7272;53.668;9.578;2022-10-04T08:09:36;8.20;;;7.03;;
14377;SDS011;7272;53.668;9.578;2022-10-04T08:12:45;7.20;;;6.07;;
14377;SDS011;7272;53.668;9.578;2022-10-04T08:15:52;8.77;;;6.73;;
14377;SDS011;7272;53.668;9.578;2022-10-04T08:19:11;8.07;;;6.17;;
14377;SDS011;7272;53.668;9.578;2022-10-04T08:22:25;9.20;;;6.53;;
14377;SDS011;7272;53.668;9.578;2022-10-04T08:25:36;8.80;;;6.43;;
14377;SDS011;7272;53.668;9.578;2022-10-04T08:28:48;9.73;;;6.77;;
14377;SDS011;7272;53.668;9.578;2022-10-04T08:32:19;7.53;;;6.47;;
14377;SDS011;7272;53.668;9.578;2022-10-04T08:35:36;7.70;;;6.00;;
14377;SDS011;7272;53.668;9.578;2022-10-04T08:38:41;6.93;;;6.17;;
14377;SDS011;7272;53.668;9.578;2022-10-04T08:41:58;8.37;;;6.27;;
14377;SDS011;7272;53.668;9.578;2022-10-04T08:45:33;9.13;;;6.00;;
14377;SDS011;7272;53.668;9.578;2022-10-04T08:49:26;9.00;;;6.77;;
14377;SDS011;7272;53.668;9.578;2022-10-04T08:53:04;7.40;;;5.90;;
14377;SDS011;7272;53.668;9.578;2022-10-04T08:56:39;5.17;;;4.67;;
14377;SDS011;7272;53.668;9.578;2022-10-04T09:00:08;9.00;;;5.83;;
14377;SDS011;7272;53.668;9.578;2022-10-04T09:03:24;6.70;;;5.23;;
14377;SDS011;7272;53.668;9.578;2022-10-04T09:06:43;8.43;;;6.23;;
14377;SDS011;7272;53.668;9.578;2022-10-04T09:10:19;8.97;;;6.20;;
14377;SDS011;7272;53.668;9.578;2022-10-04T09:13:37;7.93;;;6.13;;
14377;SDS011;7272;53.668;9.578;2022-10-04T09:16:46;10.40;;;6.30;;
14377;SDS011;7272;53.668;9.578;2022-10-04T09:19:54;10.87;;;6.17;;
14377;SDS011;7272;53.668;9.578;2022-10-04T09:23:06;8.23;;;6.07;;
14377;SDS011;7272;53.668;9.578;2022-10-04T09:26:21;7.60;;;5.40;;
14377;SDS011;7272;53.668;9.578;2022-10-04T09:29:32;9.23;;;5.53;;
14377;SDS011;7272;53.668;9.578;2022-10-04T09:39:54;12.27;;;6.10;;
14377;SDS011;7272;53.668;9.578;2022-10-04T09:43:46;9.47;;;7.77;;
14377;SDS011;7272;53.668;9.578;2022-10-04T09:47:15;8.73;;;6.30;;
14377;SDS011;7272;53.668;9.578;2022-10-04T09:57:47;6.73;;;5.63;;
14377;SDS011;7272;53.668;9.578;2022-10-04T10:01:04;7.27;;;5.80;;
14377;SDS011;7272;53.668;9.578;2022-10-04T10:04:21;7.43;;;5.70;;
14377;SDS011;7272;53.668;9.578;2022-10-04T10:07:35;6.73;;;4.97;;
14377;SDS011;7272;53.668;9.578;2022-10-04T10:10:47;8.83;;;5.53;;
14377;SDS011;7272;53.668;9.578;2022-10-04T10:14:18;10.23;;;5.60;;
14377;SDS011;7272;53.668;9.578;2022-10-04T10:17:44;8.98;;;6.53;;
14377;SDS011;7272;53.668;9.578;2022-10-04T10:21:02;7.27;;;5.13;;
14377;SDS011;7272;53.668;9.578;2022-10-04T10:24:18;8.20;;;4.90;;
14377;SDS011;7272;53.668;9.578;2022-10-04T10:27:37;8.17;;;4.63;;
14377;SDS011;7272;53.668;9.578;2022-10-04T10:30:55;9.60;;;5.47;;
14377;SDS011;7272;53.668;9.578;2022-10-04T10:34:30;6.53;;;4.40;;
14377;SDS011;7272;53.668;9.578;2022-10-04T10:37:49;7.57;;;4.63;;
14377;SDS011;7272;53.668;9.578;2022-10-04T10:41:09;6.50;;;4.37;;
14377;SDS011;7272;53.668;9.578;2022-10-04T10:44:29;6.90;;;4.97;;
14377;SDS011;7272;53.668;9.578;2022-10-04T10:47:42;9.07;;;5.00;;
14377;SDS011;7272;53.668;9.578;2022-10-04T10:50:57;4.67;;;3.90;;
14377;SDS011;7272;53.668;9.578;2022-10-04T10:57:39;9.97;;;4.80;;
14377;SDS011;7272;53.668;9.578;2022-10-04T11:01:04;4.93;;;3.37;;
14377;SDS011;7272;53.668;9.578;2022-10-04T11:04:25;6.40;;;4.33;;
14377;SDS011;7272;53.668;9.578;2022-10-04T11:07:49;7.40;;;3.80;;
14377;SDS011;7272;53.668;9.578;2022-10-04T11:10:58;5.47;;;3.50;;
14377;SDS011;7272;53.668;9.578;2022-10-04T11:18:02;7.07;;;3.90;;
14377;SDS011;7272;53.668;9.578;2022-10-04T11:25:27;4.00;;;2.60;;
14377;SDS011;7272;53.668;9.578;2022-10-04T11:29:06;6.00;;;3.30;;
14377;SDS011;7272;53.668;9.578;2022-10-04T11:35:51;5.63;;;2.93;;
14377;SDS011;7272;53.668;9.578;2022-10-04T11:39:07;4.83;;;2.83;;
14377;SDS011;7272;53.668;9.578;2022-10-04T11:42:27;7.07;;;2.70;;
14377;SDS011;7272;53.668;9.578;2022-10-04T11:45:52;5.70;;;3.13;;
14377;SDS011;7272;53.668;9.578;2022-10-04T11:49:05;6.67;;;2.90;;
14377;SDS011;7272;53.668;9.578;2022-10-04T11:52:36;5.83;;;3.03;;
14377;SDS011;7272;53.668;9.578;2022-10-04T11:55:55;5.03;;;3.00;;
14377;SDS011;7272;53.668;9.578;2022-10-04T11:59:09;4.53;;;3.17;;
14377;SDS011;7272;53.668;9.578;2022-10-04T12:02:33;4.57;;;3.00;;
14377;SDS011;7272;53.668;9.578;2022-10-04T12:06:10;6.13;;;3.33;;
14377;SDS011;7272;53.668;9.578;2022-10-04T12:09:19;5.32;;;3.75;;
14377;SDS011;7272;53.668;9.578;2022-10-04T12:12:45;6.07;;;3.33;;
14377;SDS011;7272;53.668;9.578;2022-10-04T12:19:49;6.90;;;3.97;;
14377;SDS011;7272;53.668;9.578;2022-10-04T12:23:04;5.30;;;3.47;;
14377;SDS011;7272;53.668;9.578;2022-10-04T12:26:43;6.63;;;3.87;;
14377;SDS011;7272;53.668;9.578;2022-10-04T12:30:13;6.37;;;3.43;;
14377;SDS011;7272;53.668;9.578;2022-10-04T12:33:23;4.23;;;3.50;;
14377;SDS011;7272;53.668;9.578;2022-10-04T12:36:51;5.00;;;3.60;;
14377;SDS011;7272;53.668;9.578;2022-10-04T12:40:06;7.07;;;3.93;;
14377;SDS011;7272;53.668;9.578;2022-10-04T12:43:30;7.60;;;3.87;;
14377;SDS011;7272;53.668;9.578;2022-10-04T12:46:42;6.70;;;3.37;;
14377;SDS011;7272;53.668;9.578;2022-10-04T12:49:55;5.67;;;3.43;;
14377;SDS011;7272;53.668;9.578;2022-10-04T12:53:12;4.13;;;2.53;;
14377;SDS011;7272;53.668;9.578;2022-10-04T12:56:36;4.32;;;2.65;;
14377;SDS011;7272;53.668;9.578;2022-10-04T12:59:57;4.67;;;2.40;;
14377;SDS011;7272;53.668;9.578;2022-10-04T13:06:29;5.47;;;2.30;;
14377;SDS011;7272;53.668;9.578;2022-10-04T13:09:45;2.97;;;1.93;;
14377;SDS011;7272;53.668;9.578;2022-10-04T13:13:02;3.47;;;2.03;;
14377;SDS011;7272;53.668;9.578;2022-10-04T13:16:32;4.23;;;2.80;;
14377;SDS011;7272;53.668;9.578;2022-10-04T13:19:44;3.93;;;2.67;;
14377;SDS011;7272;53.668;9.578;2022-10-04T13:22:54;6.60;;;2.97;;
14377;SDS011;7272;53.668;9.578;2022-10-04T13:29:45;3.70;;;2.63;;
14377;SDS011;7272;53.668;9.578;2022-10-04T13:32:56;4.33;;;2.77;;
14377;SDS011;7272;53.668;9.578;2022-10-04T13:36:07;5.13;;;2.90;;
14377;SDS011;7272;53.668;9.578;2022-10-04T13:39:17;5.13;;;3.10;;
14377;SDS011;7272;53.668;9.578;2022-10-04T13:42:32;6.68;;;3.55;;
14377;SDS011;7272;53.668;9.578;2022-10-04T13:45:51;6.70;;;3.22;;
14377;SDS011;7272;53.668;9.578;2022-10-04T13:49:03;4.87;;;3.30;;
14377;SDS011;7272;53.668;9.578;2022-10-04T13:52:22;4.87;;;3.40;;
14377;SDS011;7272;53.668;9.578;2022-10-04T13:55:55;5.70;;;3.17;;
14377;SDS011;7272;53.668;9.578;2022-10-04T13:59:24;3.83;;;3.20;;
14377;SDS011;7272;53.668;9.578;2022-10-04T14:06:19;2.97;;;2.40;;
14377;SDS011;7272;53.668;9.578;2022-10-04T14:09:39;4.50;;;2.90;;
14377;SDS011;7272;53.668;9.578;2022-10-04T14:13:05;4.70;;;2.37;;
14377;SDS011;7272;53.668;9.578;2022-10-04T14:16:47;3.70;;;2.27;;
14377;SDS011;7272;53.668;9.578;2022-10-04T14:24:07;3.47;;;2.50;;
14377;SDS011;7272;53.668;9.578;2022-10-04T14:27:47;5.30;;;2.80;;
14377;SDS011;7272;53.668;9.578;2022-10-04T14:31:06;4.27;;;2.47;;
14377;SDS011;7272;53.668;9.578;2022-10-04T14:34:27;4.00;;;2.60;;
14377;SDS011;7272;53.668;9.578;2022-10-04T14:37:59;4.67;;;2.30;;
14377;SDS011;7272;53.668;9.578;2022-10-04T14:41:34;4.27;;;2.43;;
14377;SDS011;7272;53.668;9.578;2022-10-04T14:45:06;3.88;;;2.72;;
14377;SDS011;7272;53.668;9.578;2022-10-04T14:48:28;3.60;;;2.30;;
14377;SDS011;7272;53.668;9.578;2022-10-04T14:51:57;5.67;;;2.60;;
14377;SDS011;7272;53.668;9.578;2022-10-04T14:55:09;5.00;;;3.10;;
14377;SDS011;7272;53.668;9.578;2022-10-04T14:58:23;4.47;;;2.97;;
14377;SDS011;7272;53.668;9.578;2022-10-04T15:01:35;4.93;;;3.07;;
14377;SDS011;7272;53.668;9.578;2022-10-04T15:11:39;5.10;;;2.90;;
14377;SDS011;7272;53.668;9.578;2022-10-04T15:14:59;4.30;;;2.90;;
14377;SDS011;7272;53.668;9.578;2022-10-04T15:18:31;3.57;;;2.67;;
14377;SDS011;7272;53.668;9.578;2022-10-04T15:21:41;6.17;;;3.17;;
14377;SDS011;7272;53.668;9.578;2022-10-04T15:24:49;3.30;;;2.63;;
14377;SDS011;7272;53.668;9.578;2022-10-04T15:27:52;4.03;;;2.70;;
14377;SDS011;7272;53.668;9.578;2022-10-04T15:30:58;5.00;;;3.07;;
14377;SDS011;7272;53.668;9.578;2022-10-04T15:34:10;2.87;;;2.30;;
14377;SDS011;7272;53.668;9.578;2022-10-04T15:37:32;5.40;;;4.00;;
14377;SDS011;7272;53.668;9.578;2022-10-04T15:40:40;4.97;;;3.20;;
14377;SDS011;7272;53.668;9.578;2022-10-04T15:44:14;4.70;;;3.00;;
14377;SDS011;7272;53.668;9.578;2022-10-04T15:47:34;4.15;;;3.30;;
14377;SDS011;7272;53.668;9.578;2022-10-04T15:50:57;3.87;;;2.50;;
14377;SDS011;7272;53.668;9.578;2022-10-04T15:54:06;3.67;;;2.27;;
14377;SDS011;7272;53.668;9.578;2022-10-04T15:57:25;3.43;;;2.60;;
14377;SDS011;7272;53.668;9.578;2022-10-04T16:00:38;4.27;;;2.90;;
14377;SDS011;7272;53.668;9.578;2022-10-04T16:03:50;4.43;;;2.90;;
14377;SDS011;7272;53.668;9.578;2022-10-04T16:07:22;3.60;;;2.73;;
14377;SDS011;7272;53.668;9.578;2022-10-04T16:10:51;3.53;;;2.63;;
14377;SDS011;7272;53.668;9.578;2022-10-04T16:18:03;3.80;;;2.70;;
14377;SDS011;7272;53.668;9.578;2022-10-04T16:21:15;4.53;;;2.57;;
14377;SDS011;7272;53.668;9.578;2022-10-04T16:24:39;3.30;;;2.63;;
14377;SDS011;7272;53.668;9.578;2022-10-04T16:31:16;3.80;;;2.77;;
14377;SDS011;7272;53.668;9.578;2022-10-04T16:34:35;5.30;;;2.87;;
14377;SDS011;7272;53.668;9.578;2022-10-04T16:37:54;3.57;;;2.73;;
14377;SDS011;7272;53.668;9.578;2022-10-04T16:41:09;3.03;;;2.73;;
14377;SDS011;7272;53.668;9.578;2022-10-04T16:44:28;3.80;;;3.07;;
14377;SDS011;7272;53.668;9.578;2022-10-04T16:47:37;3.97;;;3.60;;
14377;SDS011;7272;53.668;9.578;2022-10-04T16:50:58;5.33;;;2.70;;
14377;SDS011;7272;53.668;9.578;2022-10-04T16:58:40;3.93;;;3.13;;
14377;SDS011;7272;53.668;9.578;2022-10-04T17:05:20;5.17;;;3.30;;
14377;SDS011;7272;53.668;9.578;2022-10-04T17:08:47;4.30;;;3.90;;
14377;SDS011;7272;53.668;9.578;2022-10-04T17:12:09;4.77;;;3.30;;
14377;SDS011;7272;53.668;9.578;2022-10-04T17:18:47;4.60;;;2.90;;
14377;SDS011;7272;53.668;9.578;2022-10-04T17:21:58;3.90;;;2.70;;
14377;SDS011;7272;53.668;9.578;2022-10-04T17:25:16;4.03;;;3.30;;
14377;SDS011;7272;53.668;9.578;2022-10-04T17:28:27;3.87;;;2.93;;
14377;SDS011;7272;53.668;9.578;2022-10-04T17:31:32;4.05;;;3.55;;
14377;SDS011;7272;53.668;9.578;2022-10-04T17:34:44;4.75;;;3.30;;
14377;SDS011;7272;53.668;9.578;2022-10-04T17:37:56;3.47;;;2.70;;
14377;SDS011;7272;53.668;9.578;2022-10-04T17:41:06;3.53;;;3.20;;
14377;SDS011;7272;53.668;9.578;2022-10-04T17:44:26;3.53;;;3.23;;
14377;SDS011;7272;53.668;9.578;2022-10-04T17:47:38;6.00;;;3.30;;
14377;SDS011;7272;53.668;9.578;2022-10-04T17:51:02;5.03;;;3.53;;
14377;SDS011;7272;53.668;9.578;2022-10-04T17:54:29;3.57;;;2.90;;
14377;SDS011;7272;53.668;9.578;2022-10-04T17:57:58;6.03;;;3.00;;
14377;SDS011;7272;53.668;9.578;2022-10-04T18:01:05;3.27;;;2.97;;
14377;SDS011;7272;53.668;9.578;2022-10-04T18:04:14;4.53;;;3.67;;
14377;SDS011;7272;53.668;9.578;2022-10-04T18:07:19;4.43;;;3.27;;
14377;SDS011;7272;53.668;9.578;2022-10-04T18:10:27;4.87;;;3.70;;
14377;SDS011;7272;53.668;9.578;2022-10-04T18:13:33;5.47;;;3.73;;
14377;SDS011;7272;53.668;9.578;2022-10-04T18:16:44;4.50;;;3.43;;
14377;SDS011;7272;53.668;9.578;2022-10-04T18:19:55;5.43;;;3.80;;
14377;SDS011;7272;53.668;9.578;2022-10-04T18:23:10;3.93;;;3.37;;
14377;SDS011;7272;53.668;9.578;2022-10-04T18:26:19;4.50;;;3.33;;
14377;SDS011;7272;53.668;9.578;2022-10-04T18:29:33;4.53;;;4.07;;
14377;SDS011;7272;53.668;9.578;2022-10-04T18:32:37;5.73;;;4.00;;
14377;SDS011;7272;53.668;9.578;2022-10-04T18:35:39;6.97;;;3.90;;
14377;SDS011;7272;53.668;9.578;2022-10-04T18:38:59;4.67;;;4.03;;
14377;SDS011;7272;53.668;9.578;2022-10-04T18:42:14;5.87;;;4.57;;
14377;SDS011;7272;53.668;9.578;2022-10-04T18:45:23;5.73;;;5.10;;
14377;SDS011;7272;53.668;9.578;2022-10-04T18:48:35;5.60;;;4.17;;
14377;SDS011;7272;53.668;9.578;2022-10-04T18:51:40;5.43;;;3.20;;
14377;SDS011;7272;53.668;9.578;2022-10-04T18:54:57;4.10;;;3.70;;
14377;SDS011;7272;53.668;9.578;2022-10-04T18:58:13;5.20;;;3.70;;
14377;SDS011;7272;53.668;9.578;2022-10-04T19:01:45;5.03;;;4.03;;
14377;SDS011;7272;53.668;9.578;2022-10-04T19:05:04;4.77;;;4.33;;
14377;SDS011;7272;53.668;9.578;2022-10-04T19:08:14;3.77;;;3.40;;
14377;SDS011;7272;53.668;9.578;2022-10-04T19:11:30;4.37;;;3.43;;
14377;SDS011;7272;53.668;9.578;2022-10-04T19:14:40;3.63;;;3.07;;
14377;SDS011;7272;53.668;9.578;2022-10-04T19:17:49;5.20;;;3.97;;
14377;SDS011;7272;53.668;9.578;2022-10-04T19:21:02;5.93;;;4.13;;
14377;SDS011;7272;53.668;9.578;2022-10-04T19:24:18;5.07;;;4.40;;
14377;SDS011;7272;53.668;9.578;2022-10-04T19:27:41;3.63;;;3.33;;
14377;SDS011;7272;53.668;9.578;2022-10-04T19:30:53;6.50;;;3.63;;
14377;SDS011;7272;53.668;9.578;2022-10-04T19:34:02;4.97;;;4.10;;
14377;SDS011;7272;53.668;9.578;2022-10-04T19:37:09;5.57;;;4.90;;
14377;SDS011;7272;53.668;9.578;2022-10-04T19:40:21;5.53;;;5.00;;
14377;SDS011;7272;53.668;9.578;2022-10-04T19:43:33;4.47;;;3.87;;
14377;SDS011;7272;53.668;9.578;2022-10-04T19:46:48;4.67;;;4.10;;
14377;SDS011;7272;53.668;9.578;2022-10-04T19:49:57;3.90;;;3.57;;
14377;SDS011;7272;53.668;9.578;2022-10-04T19:53:05;4.03;;;3.60;;
14377;SDS011;7272;53.668;9.578;2022-10-04T19:56:13;4.27;;;3.80;;
14377;SDS011;7272;53.668;9.578;2022-10-04T19:59:19;4.33;;;3.90;;
14377;SDS011;7272;53.668;9.578;2022-10-04T20:02:27;4.73;;;4.27;;
14377;SDS011;7272;53.668;9.578;2022-10-04T20:05:29;4.77;;;4.23;;
14377;SDS011;7272;53.668;9.578;2022-10-04T20:08:47;4.30;;;3.80;;
14377;SDS011;7272;53.668;9.578;2022-10-04T20:11:52;6.30;;;4.07;;
14377;SDS011;7272;53.668;9.578;2022-10-04T20:29:01;4.63;;;4.23;;
14377;SDS011;7272;53.668;9.578;2022-10-04T20:32:03;5.17;;;4.77;;
14377;SDS011;7272;53.668;9.578;2022-10-04T20:35:08;4.97;;;4.53;;
14377;SDS011;7272;53.668;9.578;2022-10-04T20:38:15;6.17;;;5.00;;
14377;SDS011;7272;53.668;9.578;2022-10-04T20:45:23;5.97;;;4.93;;
14377;SDS011;7272;53.668;9.578;2022-10-04T20:48:27;4.60;;;4.20;;
14377;SDS011;7272;53.668;9.578;2022-10-04T20:51:30;5.60;;;4.97;;
14377;SDS011;7272;53.668;9.578;2022-10-04T20:54:34;4.73;;;4.33;;
14377;SDS011;7272;53.668;9.578;2022-10-04T20:57:36;7.90;;;4.20;;
14377;SDS011;7272;53.668;9.578;2022-10-04T21:00:42;4.40;;;4.00;;
14377;SDS011;7272;53.668;9.578;2022-10-04T21:03:51;5.27;;;4.77;;
14377;SDS011;7272;53.668;9.578;2022-10-04T21:06:54;5.77;;;4.90;;
14377;SDS011;7272;53.668;9.578;2022-10-04T21:10:06;4.90;;;4.00;;
14377;SDS011;7272;53.668;9.578;2022-10-04T21:16:43;5.23;;;4.13;;
14377;SDS011;7272;53.668;9.578;2022-10-04T21:19:46;5.33;;;4.53;;
14377;SDS011;7272;53.668;9.578;2022-10-04T21:22:49;4.97;;;4.47;;
14377;SDS011;7272;53.668;9.578;2022-10-04T21:26:19;5.23;;;4.83;;
14377;SDS011;7272;53.668;9.578;2022-10-04T21:29:22;6.03;;;4.63;;
14377;SDS011;7272;53.668;9.578;2022-10-04T21:32:24;5.27;;;4.60;;
14377;SDS011;7272;53.668;9.578;2022-10-04T21:35:26;6.47;;;5.30;;
14377;SDS011;7272;53.668;9.578;2022-10-04T21:38:28;8.07;;;5.60;;